Archival Weather

Snohomish County (Paine Fld)

Everett, Washington (KPAE)

Report from: Saturday, October 28, 2023 1:53 AM PDT
Current time: Friday, June 14, 2024 6:34 AM PDT

Current weather – Weather history – Daily summaries
Weather forecast

Temperature2.2°C (36.0°F)
Wind chill0.0°C (32.1°F)
Dew point-2.2°C (28.0°F)
Winds 4 kts (2.1 m/s, 4.6 mph) East (80°)
Visibility10 mi. (16.1 km)
Clouds Sky clear
Altimeter30.49 in.Hg (1033 mB)
Relative humidity73 %
Density altitude-2,138 ft. (-652 m)
Sea-level pressure103.3 kPa (1033 mB, 30.50 in.Hg)
Remarks Fully automated report
Automated weather observing station with precipitation discriminator
Pressure rising more slowly
Flight conditions Visual Meteorological Conditions
Raw dataKPAE 280853Z AUTO 08004KT 10SM CLR 02/M02 A3049 RMK AO2 SLP328 T00221022 51008
An error has occurred. This application may no longer respond until reloaded. Reload 🗙